createdAt,value
2019-06-10T00:00:51.711Z,15.51
2019-06-10T00:03:20.888Z,15.53
2019-06-10T00:05:51.760Z,15.53
2019-06-10T00:08:21.206Z,15.52
2019-06-10T00:10:51.053Z,15.49
2019-06-10T00:13:21.013Z,15.45
2019-06-10T00:15:51.570Z,15.41
2019-06-10T00:18:37.262Z,15.38
2019-06-10T00:20:52.214Z,15.37
2019-06-10T00:23:21.471Z,15.33
2019-06-10T00:25:51.639Z,15.30
2019-06-10T00:28:21.780Z,15.29
2019-06-10T00:30:51.687Z,15.25
2019-06-10T00:33:21.651Z,15.24
2019-06-10T00:35:51.519Z,15.24
2019-06-10T00:38:21.378Z,15.24
2019-06-10T00:40:51.420Z,15.27
2019-06-10T00:43:21.356Z,15.30
2019-06-10T00:45:51.500Z,15.31
2019-06-10T00:48:26.078Z,15.29
2019-06-10T00:50:51.950Z,15.32
2019-06-10T00:53:21.547Z,15.37
2019-06-10T00:55:51.672Z,15.41
2019-06-10T00:58:21.616Z,15.45
2019-06-10T01:00:51.701Z,15.49
2019-06-10T01:03:21.144Z,15.49
2019-06-10T01:05:50.836Z,15.48
2019-06-10T01:08:21.420Z,15.49
2019-06-10T01:10:52.215Z,15.48
2019-06-10T01:13:21.646Z,15.48
2019-06-10T01:15:51.215Z,15.49
2019-06-10T01:18:34.711Z,15.48
2019-06-10T01:20:51.702Z,15.46
2019-06-10T01:23:21.870Z,15.47
2019-06-10T01:25:51.252Z,15.46
2019-06-10T01:28:22.010Z,15.43
2019-06-10T01:30:51.803Z,15.42
2019-06-10T01:33:21.585Z,15.43
2019-06-10T01:35:51.537Z,15.42
2019-06-10T01:38:21.278Z,15.39
2019-06-10T01:40:50.983Z,15.37
2019-06-10T01:43:21.470Z,15.34
2019-06-10T01:45:53.369Z,15.32
2019-06-10T01:48:22.564Z,15.31
2019-06-10T01:50:51.722Z,15.30
2019-06-10T01:53:22.081Z,15.30
2019-06-10T01:55:52.017Z,15.29
2019-06-10T01:58:23.580Z,15.27
2019-06-10T02:01:15.635Z,15.21
2019-06-10T02:03:43.214Z,15.19
2019-06-10T02:06:20.502Z,15.19
2019-06-10T02:08:47.419Z,15.20
2019-06-10T02:11:18.765Z,15.20
2019-06-10T02:13:51.400Z,15.20
2019-06-10T02:16:23.881Z,15.18
2019-06-10T02:19:00.322Z,15.17
2019-06-10T02:21:24.417Z,15.13
2019-06-10T02:23:53.442Z,15.13
2019-06-10T02:26:23.694Z,15.10
2019-06-10T02:28:53.036Z,15.09
2019-06-10T02:31:30.127Z,15.06
2019-06-10T02:33:53.126Z,15.01
2019-06-10T02:36:30.826Z,14.99
2019-06-10T02:38:54.123Z,14.98
2019-06-10T02:41:31.692Z,14.99
2019-06-10T02:43:54.311Z,14.97
2019-06-10T02:46:43.826Z,14.96
2019-06-10T02:49:29.833Z,14.98
2019-06-10T02:51:44.501Z,14.99
2019-06-10T02:54:16.305Z,14.98
2019-06-10T02:56:44.703Z,14.98
2019-06-10T02:59:15.912Z,14.97
2019-06-10T03:01:44.844Z,14.99
2019-06-10T03:04:14.530Z,14.99
2019-06-10T03:06:45.193Z,15.00
2019-06-10T03:09:16.129Z,15.00
2019-06-10T03:11:48.306Z,15.01
2019-06-10T03:14:17.765Z,15.01
2019-06-10T03:16:52.816Z,14.99
2019-06-10T03:19:39.728Z,14.98
2019-06-10T03:21:52.979Z,14.95
2019-06-10T03:24:23.965Z,14.95
2019-06-10T03:26:53.069Z,14.93
2019-06-10T03:29:24.636Z,14.92
2019-06-10T03:31:55.308Z,14.94
2019-06-10T03:34:33.584Z,14.98
2019-06-10T03:36:55.347Z,14.97
2019-06-10T03:39:26.889Z,14.98
2019-06-10T03:41:55.498Z,15.00
2019-06-10T03:44:26.366Z,14.98
2019-06-10T03:46:55.666Z,14.99
2019-06-10T03:49:27.045Z,15.01
2019-06-10T03:51:56.925Z,15.03
2019-06-10T03:54:28.214Z,15.04
2019-06-10T03:56:56.984Z,15.02
2019-06-10T03:59:29.039Z,15.00
2019-06-10T04:01:57.286Z,15.04
2019-06-10T04:06:57.355Z,15.11
2019-06-10T04:09:27.485Z,15.07
2019-06-10T04:11:57.535Z,15.10
2019-06-10T04:14:28.446Z,15.14
2019-06-10T04:16:57.676Z,15.15
2019-06-10T04:19:27.487Z,15.18
2019-06-10T04:21:58.082Z,15.20
2019-06-10T04:24:28.626Z,15.21
2019-06-10T04:26:58.004Z,15.21
2019-06-10T04:29:28.667Z,15.23
2019-06-10T04:32:03.065Z,15.24
2019-06-10T04:34:33.471Z,15.27
2019-06-10T04:37:03.685Z,15.27
2019-06-10T04:39:33.653Z,15.28
2019-06-10T04:42:03.050Z,15.29
2019-06-10T04:44:33.119Z,15.32
2019-06-10T04:47:02.837Z,15.33
2019-06-10T04:49:33.687Z,15.34
2019-06-10T04:52:04.411Z,15.39
2019-06-10T04:54:33.607Z,15.42
2019-06-10T04:57:02.812Z,15.49
2019-06-10T04:59:33.632Z,15.51
2019-06-10T05:02:05.660Z,15.54
2019-06-10T05:04:34.030Z,15.58
2019-06-10T05:07:03.210Z,15.60
2019-06-10T05:09:33.584Z,15.63
2019-06-10T05:12:03.669Z,15.67
2019-06-10T05:14:33.481Z,15.71
2019-06-10T05:17:03.447Z,15.79
2019-06-10T05:19:36.972Z,15.83
2019-06-10T05:22:06.152Z,15.87
2019-06-10T05:24:35.333Z,15.89
2019-06-10T05:27:04.970Z,15.93
2019-06-10T05:29:34.172Z,15.96
2019-06-10T05:32:03.473Z,16.00
2019-06-10T05:34:35.014Z,16.03
2019-06-10T05:37:05.810Z,16.06
2019-06-10T05:39:35.812Z,16.08
2019-06-10T05:42:05.267Z,16.11
2019-06-10T05:44:35.858Z,16.16
2019-06-10T05:47:05.903Z,16.21
2019-06-10T05:49:36.146Z,16.27
2019-06-10T05:52:05.511Z,16.34
2019-06-10T05:54:35.473Z,16.41
2019-06-10T05:57:04.919Z,16.53
2019-06-10T05:59:35.816Z,16.60
2019-06-10T06:02:05.369Z,16.69
2019-06-10T06:04:36.070Z,16.79
2019-06-10T06:07:05.634Z,16.89
2019-06-10T06:09:35.408Z,17.02
2019-06-10T06:12:04.773Z,17.15
2019-06-10T06:14:36.065Z,17.28
2019-06-10T06:17:05.501Z,17.38
2019-06-10T06:19:38.479Z,17.45
2019-06-10T06:22:07.396Z,17.49
2019-06-10T06:24:37.958Z,17.51
2019-06-10T06:27:08.432Z,17.53
2019-06-10T06:29:38.284Z,17.54
2019-06-10T06:32:06.881Z,17.59
2019-06-10T06:34:38.692Z,17.72
2019-06-10T06:37:07.938Z,17.82
2019-06-10T06:39:38.249Z,17.91
2019-06-10T06:42:09.485Z,17.96
2019-06-10T06:44:39.512Z,18.00
2019-06-10T06:47:09.800Z,18.03
2019-06-10T06:49:38.979Z,18.11
2019-06-10T06:52:08.245Z,18.18
2019-06-10T06:54:39.093Z,18.25
2019-06-10T06:57:08.561Z,18.31
2019-06-10T06:59:39.045Z,18.31
2019-06-10T07:02:08.736Z,18.39
2019-06-10T07:04:38.730Z,18.44
2019-06-10T07:07:10.014Z,18.82
2019-06-10T07:09:40.618Z,19.02
2019-06-10T07:12:11.024Z,19.45
2019-06-10T07:14:45.065Z,19.76
2019-06-10T07:17:16.399Z,20.56
2019-06-10T07:19:49.392Z,21.29
2019-06-10T07:22:19.307Z,22.09
2019-06-10T07:24:48.685Z,22.92
2019-06-10T07:27:22.574Z,23.23
2019-06-10T07:29:52.977Z,23.94
2019-06-10T07:32:22.799Z,24.64
2019-06-10T07:34:57.232Z,25.30
2019-06-10T07:37:27.542Z,25.99
2019-06-10T07:40:04.123Z,27.00
2019-06-10T07:42:36.323Z,27.55
2019-06-10T07:45:07.476Z,28.31
2019-06-10T07:47:37.010Z,28.91
2019-06-10T07:50:09.019Z,29.42
2019-06-10T07:52:39.309Z,29.92
2019-06-10T07:55:08.947Z,30.44
2019-06-10T07:57:39.267Z,30.28
2019-06-10T08:00:15.101Z,30.56
2019-06-10T08:03:04.098Z,30.81
2019-06-10T08:05:34.240Z,30.37
2019-06-10T08:08:05.032Z,29.73
2019-06-10T08:10:35.390Z,28.52
2019-06-10T08:13:04.703Z,27.53
2019-06-10T08:15:33.149Z,26.81
2019-06-10T08:18:04.264Z,26.27
2019-06-10T08:20:47.613Z,26.01
2019-06-10T08:23:18.157Z,25.85
2019-06-10T08:25:53.708Z,25.83
2019-06-10T08:28:19.198Z,25.96
2019-06-10T08:30:48.280Z,25.94
2019-06-10T08:33:17.514Z,25.93
2019-06-10T08:35:56.027Z,25.84
2019-06-10T08:38:17.624Z,25.37
2019-06-10T08:40:48.389Z,25.25
2019-06-10T08:43:16.927Z,25.25
2019-06-10T08:45:47.156Z,25.21
2019-06-10T08:48:16.213Z,25.21
2019-06-10T08:50:49.651Z,25.10
2019-06-10T08:53:18.236Z,25.06
2019-06-10T08:55:50.083Z,24.92
2019-06-10T08:58:18.193Z,24.87
2019-06-10T09:00:49.500Z,24.91
2019-06-10T09:03:18.593Z,24.93
2019-06-10T09:05:49.866Z,24.90
2019-06-10T09:08:18.652Z,24.93
2019-06-10T09:10:51.593Z,25.02
2019-06-10T09:13:22.247Z,25.06
2019-06-10T09:16:10.496Z,25.13
2019-06-10T09:18:23.252Z,25.15
2019-06-10T09:20:55.828Z,25.18
2019-06-10T09:23:25.677Z,25.18
2019-06-10T09:25:57.256Z,25.01
2019-06-10T09:28:25.241Z,25.04
2019-06-10T09:30:59.461Z,25.17
2019-06-10T09:33:25.016Z,25.34
2019-06-10T09:35:55.021Z,25.26
2019-06-10T09:38:27.770Z,25.51
2019-06-10T09:41:01.724Z,25.57
2019-06-10T09:43:27.895Z,25.46
2019-06-10T09:45:57.448Z,25.22
2019-06-10T09:48:28.149Z,25.10
2019-06-10T09:50:58.937Z,25.21
2019-06-10T09:53:38.909Z,24.90
2019-06-10T09:56:04.225Z,24.48
2019-06-10T09:58:33.997Z,24.16
2019-06-10T10:01:04.769Z,24.13
2019-06-10T10:03:34.136Z,24.13
2019-06-10T10:06:14.526Z,24.16
2019-06-10T10:08:38.543Z,24.22
2019-06-10T10:11:09.222Z,24.36
2019-06-10T10:13:38.614Z,24.21
2019-06-10T10:16:07.792Z,24.24
2019-06-10T10:18:37.014Z,24.77
2019-06-10T10:21:05.580Z,25.14
2019-06-10T10:23:50.068Z,25.28
2019-06-10T10:26:05.682Z,25.41
2019-06-10T10:28:35.673Z,25.47
2019-06-10T10:31:05.778Z,25.52
2019-06-10T10:33:35.988Z,25.57
2019-06-10T10:36:05.870Z,25.59
2019-06-10T10:38:35.112Z,25.49
2019-06-10T10:41:04.687Z,25.46
2019-06-10T10:43:37.599Z,25.60
2019-06-10T10:46:07.911Z,25.70
2019-06-10T10:48:37.079Z,25.92
2019-06-10T10:51:06.293Z,26.06
2019-06-10T10:53:35.421Z,26.04
2019-06-10T10:56:04.749Z,26.09
2019-06-10T10:58:34.712Z,26.09
2019-06-10T11:01:04.826Z,26.08
2019-06-10T11:03:34.346Z,26.05
2019-06-10T11:06:02.810Z,26.11
2019-06-10T11:08:33.426Z,26.11
2019-06-10T11:11:05.270Z,26.14
2019-06-10T11:13:36.895Z,26.26
2019-06-10T11:16:06.853Z,26.28
2019-06-10T11:18:36.254Z,26.32
2019-06-10T11:21:05.487Z,26.40
2019-06-10T11:23:34.874Z,26.50
2019-06-10T11:26:05.129Z,26.54
2019-06-10T11:28:35.423Z,26.63
2019-06-10T11:31:05.811Z,26.80
2019-06-10T11:33:34.942Z,26.82
2019-06-10T11:36:05.733Z,26.88
2019-06-10T11:38:35.030Z,26.77
2019-06-10T11:41:03.492Z,26.76
2019-06-10T11:43:33.243Z,26.69
2019-06-10T11:46:06.971Z,26.63
2019-06-10T11:48:33.450Z,26.50
2019-06-10T11:51:04.576Z,26.17
2019-06-10T11:53:34.503Z,26.03
2019-06-10T11:56:06.531Z,25.96
2019-06-10T11:58:37.957Z,25.90
2019-06-10T12:01:07.143Z,25.83
2019-06-10T12:03:35.598Z,25.96
2019-06-10T12:06:06.050Z,25.92
2019-06-10T12:08:35.781Z,25.82
2019-06-10T12:11:06.563Z,25.75
2019-06-10T12:13:35.724Z,25.65
2019-06-10T12:17:05.186Z,25.79
2019-06-10T12:18:37.796Z,25.78
2019-06-10T12:21:06.973Z,25.71
2019-06-10T12:23:35.472Z,25.64
2019-06-10T12:26:05.314Z,25.65
2019-06-10T12:28:34.854Z,25.68
2019-06-10T12:31:09.238Z,25.61
2019-06-10T12:33:38.534Z,25.70
2019-06-10T12:36:08.297Z,25.87
2019-06-10T12:38:39.429Z,25.92
2019-06-10T12:41:10.427Z,26.06
2019-06-10T12:43:39.521Z,26.23
2019-06-10T12:46:08.914Z,26.37
2019-06-10T12:48:37.301Z,26.39
2019-06-10T12:51:09.702Z,26.47
2019-06-10T12:53:39.593Z,26.51
2019-06-10T12:56:11.310Z,26.55
2019-06-10T12:58:42.895Z,26.60
2019-06-10T13:01:11.554Z,26.62
2019-06-10T13:03:43.270Z,26.56
2019-06-10T13:06:16.390Z,26.32
2019-06-10T13:08:46.224Z,26.10
2019-06-10T13:11:23.305Z,26.01
2019-06-10T13:13:56.166Z,25.91
2019-06-10T13:16:26.015Z,25.88
2019-06-10T13:18:56.095Z,25.79
2019-06-10T13:21:25.540Z,25.74
2019-06-10T13:23:55.986Z,25.70
2019-06-10T13:26:26.059Z,25.72
2019-06-10T13:28:57.185Z,25.73
2019-06-10T13:31:28.279Z,25.71
2019-06-10T13:34:04.714Z,25.71
2019-06-10T13:36:33.058Z,25.75
2019-06-10T13:39:08.043Z,25.92
2019-06-10T13:41:35.236Z,26.19
2019-06-10T13:44:08.297Z,26.33
2019-06-10T13:46:42.649Z,26.25
2019-06-10T13:49:15.433Z,26.03
2019-06-10T13:51:45.121Z,25.84
2019-06-10T13:54:17.552Z,25.67
2019-06-10T13:56:47.785Z,25.62
2019-06-10T13:59:17.177Z,25.53
2019-06-10T14:01:45.609Z,25.34
2019-06-10T14:07:17.421Z,25.56
2019-06-10T14:09:43.873Z,25.37
2019-06-10T14:12:17.636Z,25.29
2019-06-10T14:14:43.968Z,25.50
2019-06-10T14:17:16.025Z,25.60
2019-06-10T14:19:43.411Z,25.59
2019-06-10T14:22:16.009Z,25.39
2019-06-10T14:24:45.757Z,25.48
2019-06-10T14:27:18.052Z,25.56
2019-06-10T14:29:46.323Z,25.56
2019-06-10T14:32:17.223Z,25.59
2019-06-10T14:34:46.844Z,25.64
2019-06-10T14:37:32.148Z,25.62
2019-06-10T14:39:52.744Z,25.69
2019-06-10T14:42:26.718Z,25.70
2019-06-10T14:44:58.794Z,25.48
2019-06-10T14:47:29.069Z,25.62
2019-06-10T14:49:58.599Z,25.74
2019-06-10T14:52:28.574Z,25.72
2019-06-10T14:55:02.432Z,25.65
2019-06-10T14:57:33.305Z,25.72
2019-06-10T15:00:03.070Z,25.68
2019-06-10T15:02:33.399Z,25.65
2019-06-10T15:05:03.065Z,25.47
2019-06-10T15:07:34.234Z,25.31
2019-06-10T15:10:04.460Z,25.18
2019-06-10T15:12:35.453Z,25.08
2019-06-10T15:15:08.146Z,25.01
2019-06-10T15:17:38.907Z,24.94
2019-06-10T15:20:09.596Z,24.97
2019-06-10T15:22:38.761Z,24.98
2019-06-10T15:25:11.546Z,25.01
2019-06-10T15:27:42.749Z,25.08
2019-06-10T15:30:20.737Z,25.14
2019-06-10T15:32:42.925Z,25.31
2019-06-10T15:35:16.079Z,25.49
2019-06-10T15:37:45.462Z,25.61
2019-06-10T15:40:16.637Z,25.66
2019-06-10T15:42:45.908Z,25.67
2019-06-10T15:45:17.634Z,25.67
2019-06-10T15:47:47.044Z,25.54
2019-06-10T15:50:17.362Z,25.57
2019-06-10T15:52:47.270Z,25.54
2019-06-10T15:55:37.831Z,25.50
2019-06-10T15:57:46.816Z,25.44
2019-06-10T16:00:19.987Z,25.39
2019-06-10T16:02:48.581Z,25.28
2019-06-10T16:05:21.357Z,25.19
2019-06-10T16:07:52.994Z,25.13
2019-06-10T16:10:27.483Z,25.05
2019-06-10T16:12:53.991Z,24.85
2019-06-10T16:15:24.786Z,24.70
2019-06-10T16:17:54.581Z,24.56
2019-06-10T16:20:23.568Z,24.51
2019-06-10T16:22:54.169Z,24.46
2019-06-10T16:25:26.291Z,24.47
2019-06-10T16:27:55.513Z,24.41
2019-06-10T16:30:26.041Z,24.33
2019-06-10T16:32:55.328Z,24.33
2019-06-10T16:35:26.768Z,24.37
2019-06-10T16:37:56.862Z,24.38
2019-06-10T16:40:27.229Z,24.46
2019-06-10T16:42:57.628Z,24.55
2019-06-10T16:45:30.648Z,24.65
2019-06-10T16:47:59.119Z,24.75
2019-06-10T16:50:33.718Z,24.83
2019-06-10T16:53:02.997Z,24.93
2019-06-10T16:55:33.820Z,25.05
2019-06-10T16:58:03.867Z,25.06
2019-06-10T17:00:34.842Z,25.10
2019-06-10T17:03:05.510Z,25.16
2019-06-10T17:05:35.204Z,25.18
2019-06-10T17:08:04.690Z,25.12
2019-06-10T17:10:34.542Z,25.01
2019-06-10T17:13:06.499Z,25.00
2019-06-10T17:15:35.772Z,24.89
2019-06-10T17:18:06.262Z,24.77
2019-06-10T17:20:37.458Z,24.82
2019-06-10T17:23:21.800Z,24.81
2019-06-10T17:25:56.829Z,24.76
2019-06-10T17:28:31.756Z,24.83
2019-06-10T17:30:59.183Z,24.86
2019-06-10T17:33:30.417Z,24.81
2019-06-10T17:36:03.106Z,24.68
2019-06-10T17:38:31.589Z,24.65
2019-06-10T17:41:02.995Z,24.57
2019-06-10T17:43:34.024Z,24.52
2019-06-10T17:46:03.526Z,24.49
2019-06-10T17:48:33.680Z,24.45
2019-06-10T17:51:05.173Z,24.41
2019-06-10T17:53:35.082Z,24.33
2019-06-10T17:56:04.429Z,24.24
2019-06-10T17:58:49.260Z,24.13
2019-06-10T18:01:03.754Z,23.97
2019-06-10T18:03:33.420Z,23.84
2019-06-10T18:06:04.115Z,23.71
2019-06-10T18:08:36.308Z,23.57
2019-06-10T18:11:04.637Z,23.43
2019-06-10T18:13:35.926Z,23.35
2019-06-10T18:16:06.381Z,23.23
2019-06-10T18:18:37.286Z,23.16
2019-06-10T18:21:06.927Z,23.05
2019-06-10T18:23:36.106Z,22.92
2019-06-10T18:26:05.269Z,22.83
2019-06-10T18:28:52.709Z,22.74
2019-06-10T18:31:05.332Z,22.66
2019-06-10T18:33:37.502Z,22.57
2019-06-10T18:36:05.562Z,22.49
2019-06-10T18:38:37.154Z,22.42
2019-06-10T18:41:05.933Z,22.35
2019-06-10T18:43:35.723Z,22.27
2019-06-10T18:46:06.048Z,22.20
2019-06-10T18:48:37.877Z,22.14
2019-06-10T18:51:06.306Z,22.08
2019-06-10T18:53:36.442Z,22.02
2019-06-10T18:56:06.892Z,21.92
2019-06-10T18:58:37.484Z,21.84
2019-06-10T19:01:08.178Z,21.77
2019-06-10T19:03:38.265Z,21.71
2019-06-10T19:06:09.327Z,21.67
2019-06-10T19:08:39.325Z,21.62
2019-06-10T19:11:09.770Z,21.57
2019-06-10T19:13:39.179Z,21.54
2019-06-10T19:16:09.064Z,21.45
2019-06-10T19:18:38.521Z,21.36
2019-06-10T19:21:08.787Z,21.26
2019-06-10T19:23:39.390Z,21.17
2019-06-10T19:26:08.983Z,21.09
2019-06-10T19:28:39.175Z,20.97
2019-06-10T19:31:09.038Z,20.83
2019-06-10T19:33:39.265Z,20.67
2019-06-10T19:36:09.158Z,20.57
2019-06-10T19:38:39.922Z,20.51
2019-06-10T19:41:09.046Z,20.50
2019-06-10T19:43:39.788Z,20.43
2019-06-10T19:46:09.111Z,20.35
2019-06-10T19:48:41.636Z,20.28
2019-06-10T19:51:09.187Z,20.22
2019-06-10T19:53:38.918Z,20.12
2019-06-10T19:56:08.170Z,20.03
2019-06-10T19:58:38.229Z,19.95
2019-06-10T20:01:07.568Z,19.86
2019-06-10T20:03:37.812Z,19.77
2019-06-10T20:06:06.947Z,19.69
2019-06-10T20:08:36.163Z,19.61
2019-06-10T20:11:06.358Z,19.54
2019-06-10T20:13:36.467Z,19.47
2019-06-10T20:16:05.660Z,19.42
2019-06-10T20:18:35.903Z,19.37
2019-06-10T20:21:05.171Z,19.32
2019-06-10T20:23:35.407Z,19.30
2019-06-10T20:26:04.668Z,19.26
2019-06-10T20:28:33.944Z,19.21
2019-06-10T20:31:03.104Z,19.18
2019-06-10T20:33:37.001Z,19.16
2019-06-10T20:36:07.045Z,19.20
2019-06-10T20:38:35.963Z,19.24
2019-06-10T20:41:05.418Z,19.24
2019-06-10T20:43:34.745Z,19.24
2019-06-10T20:46:05.908Z,19.22
2019-06-10T20:48:35.423Z,19.16
2019-06-10T20:51:04.588Z,19.11
2019-06-10T20:53:34.014Z,19.10
2019-06-10T20:56:03.802Z,19.10
2019-06-10T20:58:33.441Z,19.09
2019-06-10T21:01:05.014Z,19.09
2019-06-10T21:03:34.785Z,19.06
2019-06-10T21:06:05.675Z,19.05
2019-06-10T21:08:35.408Z,19.08
2019-06-10T21:11:05.025Z,19.12
2019-06-10T21:13:36.223Z,19.09
2019-06-10T21:16:05.393Z,19.03
2019-06-10T21:18:34.553Z,18.98
2019-06-10T21:21:03.750Z,18.97
2019-06-10T21:23:32.996Z,18.97
2019-06-10T21:26:03.157Z,19.00
2019-06-10T21:28:32.898Z,19.03
2019-06-10T21:31:03.197Z,19.09
2019-06-10T21:33:33.551Z,19.12
2019-06-10T21:36:03.886Z,19.18
2019-06-10T21:38:33.909Z,19.20
2019-06-10T21:41:03.920Z,19.21
2019-06-10T21:43:33.325Z,19.19
2019-06-10T21:46:03.653Z,19.14
2019-06-10T21:48:32.794Z,19.13
2019-06-10T21:51:01.974Z,19.12
2019-06-10T21:53:32.245Z,19.10
2019-06-10T21:56:03.183Z,19.11
2019-06-10T21:58:33.651Z,19.11
2019-06-10T22:01:12.579Z,19.07
2019-06-10T22:03:35.044Z,19.02
2019-06-10T22:06:05.022Z,18.97
2019-06-10T22:08:34.894Z,18.95
2019-06-10T22:11:05.028Z,18.88
2019-06-10T22:13:38.005Z,18.80
2019-06-10T22:16:07.799Z,18.72
2019-06-10T22:18:38.762Z,18.62
2019-06-10T22:21:08.196Z,18.55
2019-06-10T22:23:42.242Z,18.51
2019-06-10T22:26:13.114Z,18.53
2019-06-10T22:28:43.294Z,18.58
2019-06-10T22:31:22.299Z,18.61
2019-06-10T22:33:43.486Z,18.58
2019-06-10T22:36:15.707Z,18.54
2019-06-10T22:38:45.964Z,18.56
2019-06-10T22:41:15.235Z,18.62
2019-06-10T22:43:44.737Z,18.65
2019-06-10T22:46:14.413Z,18.64
2019-06-10T22:48:44.309Z,18.64
2019-06-10T22:51:14.289Z,18.63
2019-06-10T22:53:44.171Z,18.59
2019-06-10T22:56:13.349Z,18.58
2019-06-10T22:58:42.534Z,18.61
2019-06-10T23:01:12.464Z,18.66
2019-06-10T23:03:42.361Z,18.66
2019-06-10T23:06:12.634Z,18.68
2019-06-10T23:08:43.753Z,18.71
2019-06-10T23:11:13.092Z,18.75
2019-06-10T23:13:44.276Z,18.75
2019-06-10T23:16:14.387Z,18.73
2019-06-10T23:18:46.330Z,18.73
2019-06-10T23:21:17.768Z,18.72
2019-06-10T23:23:46.961Z,18.74
2019-06-10T23:26:16.152Z,18.74
2019-06-10T23:28:46.105Z,18.73
2019-06-10T23:31:15.282Z,18.73
2019-06-10T23:33:44.433Z,18.76
2019-06-10T23:36:14.691Z,18.80
2019-06-10T23:38:44.149Z,18.83
2019-06-10T23:41:13.641Z,18.84
2019-06-10T23:43:42.372Z,18.81
2019-06-10T23:46:12.108Z,18.85
2019-06-10T23:48:42.380Z,18.87
2019-06-10T23:51:12.193Z,18.88
2019-06-10T23:53:41.447Z,18.85
2019-06-10T23:56:12.704Z,18.83
2019-06-10T23:58:43.333Z,18.82
